Time;durP1;ratioP1;P1;durP2;ratioP2;P2;SDS_P1;SDS_P2;PMS_P1;PMS_P2;Temp;Humidity;BMP_temperature;BMP_pressure;BME280_temperature;BME280_humidity;BME280_pressure;Samples;Min_cycle;Max_cycle;Signal;HPM_P1;HPM_P2
2021/12/15 00:01:49;;;;;;;166.40;51.50;;;10.20;99.90;;;;;;5051068;28;20375;-47
2021/12/15 00:04:15;;;;;;;161.23;51.35;;;10.00;99.90;;;;;;5050814;28;20053;-45
2021/12/15 00:06:42;;;;;;;150.18;46.03;;;9.80;99.90;;;;;;5050595;28;20045;-46
2021/12/15 00:09:12;;;;;;;154.07;48.58;;;9.40;99.90;;;;;;5050479;28;20075;-45
2021/12/15 00:11:39;;;;;;;159.55;48.85;;;9.40;99.90;;;;;;5050494;28;20128;-47
2021/12/15 00:14:09;;;;;;;154.07;50.22;;;9.30;99.90;;;;;;5032568;28;20053;-45
2021/12/15 00:16:36;;;;;;;156.55;46.90;;;9.60;99.90;;;;;;5050769;28;20080;-45
2021/12/15 00:19:03;;;;;;;140.50;46.58;;;10.00;99.90;;;;;;5050882;28;20521;-46
2021/12/15 00:21:29;;;;;;;148.23;49.88;;;9.20;99.90;;;;;;5051154;28;20041;-45
2021/12/15 00:23:56;;;;;;;142.85;50.78;;;9.40;99.90;;;;;;5051089;28;20380;-46
2021/12/15 00:26:21;;;;;;;159.20;49.35;;;10.20;99.90;;;;;;5050737;28;20040;-47
2021/12/15 00:28:49;;;;;;;147.38;49.15;;;10.30;99.90;;;;;;5050087;28;20590;-46
2021/12/15 00:31:15;;;;;;;160.65;50.05;;;9.40;99.90;;;;;;5050336;28;20037;-48
2021/12/15 00:33:41;;;;;;;147.50;48.72;;;10.20;99.90;;;;;;5050333;28;20142;-46
2021/12/15 00:36:07;;;;;;;138.38;51.50;;;9.40;99.90;;;;;;5050116;28;20032;-46
2021/12/15 00:38:33;;;;;;;125.72;41.70;;;9.40;99.90;;;;;;5050170;28;20510;-45
2021/12/15 00:41:01;;;;;;;143.27;49.05;;;9.60;99.90;;;;;;5049586;28;20056;-46
2021/12/15 00:43:27;;;;;;;140.40;50.15;;;10.20;99.90;;;;;;5050367;28;20088;-47
2021/12/15 00:45:52;;;;;;;124.38;47.38;;;9.40;99.90;;;;;;5049922;28;20049;-45
2021/12/15 00:48:18;;;;;;;145.95;49.15;;;10.00;99.90;;;;;;5049922;28;20040;-45
2021/12/15 00:50:46;;;;;;;147.52;49.85;;;9.40;99.90;;;;;;5050695;28;20399;-45
2021/12/15 00:53:12;;;;;;;118.20;43.42;;;9.40;99.90;;;;;;5050190;28;20453;-45
2021/12/15 00:55:39;;;;;;;141.25;48.25;;;9.40;99.90;;;;;;5049953;28;20055;-45
2021/12/15 00:58:07;;;;;;;136.05;48.83;;;9.50;99.90;;;;;;5049891;28;20045;-46
2021/12/15 01:00:47;;;;;;;131.30;48.72;;;9.30;99.90;;;;;;5049169;28;20115;-45
2021/12/15 01:03:13;;;;;;;112.68;47.45;;;9.50;99.90;;;;;;5050240;28;20060;-45
2021/12/15 01:05:49;;;;;;;116.18;46.03;;;9.40;99.90;;;;;;5050291;28;20120;-47
2021/12/15 01:08:20;;;;;;;127.90;48.28;;;9.60;99.90;;;;;;5050103;28;20033;-45
2021/12/15 01:11:02;;;;;;;119.75;46.95;;;9.50;99.90;;;;;;5050376;28;20454;-45
2021/12/15 01:21:46;;;;;;;137.32;46.50;;;10.10;99.90;;;;;;5050237;28;20403;-46
2021/12/15 01:24:13;;;;;;;133.57;48.55;;;10.20;99.90;;;;;;5053665;28;20342;-45
2021/12/15 01:26:39;;;;;;;132.93;47.58;;;10.00;99.90;;;;;;5054389;28;20045;-47
2021/12/15 01:29:05;;;;;;;137.25;46.72;;;9.50;99.90;;;;;;5053432;28;20598;-46
2021/12/15 01:31:31;;;;;;;142.73;47.38;;;9.40;99.90;;;;;;5053756;28;20129;-45
2021/12/15 01:33:56;;;;;;;137.68;49.08;;;9.50;99.90;;;;;;5053973;28;20037;-45
2021/12/15 01:36:22;;;;;;;132.00;46.35;;;9.50;99.90;;;;;;5054226;28;20103;-46
2021/12/15 01:38:48;;;;;;;133.90;46.15;;;9.70;99.90;;;;;;5052114;28;20037;-45
2021/12/15 01:41:21;;;;;;;123.75;44.88;;;9.40;99.90;;;;;;5053793;28;20414;-45
2021/12/15 01:46:58;;;;;;;128.60;42.88;;;10.20;99.90;;;;;;5032540;28;20080;-45
2021/12/15 01:49:33;;;;;;;121.95;44.22;;;9.60;99.90;;;;;;5054196;28;20037;-45
2021/12/15 01:52:05;;;;;;;114.65;42.47;;;9.90;99.90;;;;;;5053707;28;20470;-45
2021/12/15 01:54:33;;;;;;;119.55;45.15;;;9.50;99.90;;;;;;5053638;28;20048;-46
2021/12/15 01:56:59;;;;;;;107.07;41.40;;;10.00;99.90;;;;;;5053047;28;20049;-46
2021/12/15 01:59:27;;;;;;;129.90;44.97;;;9.50;99.90;;;;;;5054060;28;20047;-48
2021/12/15 02:01:53;;;;;;;131.27;45.20;;;9.90;99.90;;;;;;5053616;28;20128;-46
2021/12/15 02:04:19;;;;;;;125.70;44.53;;;9.50;99.90;;;;;;5053738;28;20457;-49
2021/12/15 02:06:47;;;;;;;131.65;48.20;;;9.30;99.90;;;;;;5053171;28;20084;-46
2021/12/15 02:09:21;;;;;;;120.35;43.85;;;9.60;99.90;;;;;;5053463;28;20102;-45
2021/12/15 02:11:47;;;;;;;117.53;43.30;;;9.60;99.90;;;;;;5053294;28;20554;-46
2021/12/15 02:14:12;;;;;;;116.45;43.28;;;10.00;99.90;;;;;;5053067;28;20137;-45
2021/12/15 02:16:38;;;;;;;117.40;44.28;;;9.60;99.90;;;;;;5053647;28;20128;-45
2021/12/15 02:19:04;;;;;;;120.68;43.25;;;9.80;99.90;;;;;;5053056;28;20074;-45
2021/12/15 02:21:30;;;;;;;111.75;42.70;;;9.60;99.90;;;;;;5053275;28;20485;-46
2021/12/15 02:23:58;;;;;;;126.82;44.55;;;9.50;99.90;;;;;;5052938;28;20041;-47
2021/12/15 02:26:29;;;;;;;119.43;45.03;;;9.40;99.90;;;;;;5052907;28;20040;-45
2021/12/15 02:28:57;;;;;;;125.15;44.50;;;9.30;99.90;;;;;;5052280;28;20482;-46
2021/12/15 02:31:40;;;;;;;130.98;44.30;;;9.80;99.90;;;;;;5052776;28;20087;-47
2021/12/15 02:34:30;;;;;;;129.82;45.03;;;9.60;99.90;;;;;;5052817;28;20056;-46
2021/12/15 02:39:32;;;;;;;118.97;42.00;;;9.60;99.90;;;;;;5053123;28;20061;-45
2021/12/15 02:41:58;;;;;;;131.23;45.97;;;9.50;99.90;;;;;;5053271;28;20056;-46
2021/12/15 02:44:25;;;;;;;136.80;45.13;;;9.60;99.90;;;;;;5052689;28;20098;-46
2021/12/15 02:46:53;;;;;;;135.45;43.47;;;9.60;99.90;;;;;;5052918;28;20498;-45
2021/12/15 02:49:21;;;;;;;133.27;45.25;;;9.70;99.90;;;;;;5052530;28;20045;-46
2021/12/15 02:51:49;;;;;;;133.15;46.75;;;9.40;99.90;;;;;;5052879;28;20041;-45
2021/12/15 02:54:17;;;;;;;129.15;45.47;;;9.60;99.90;;;;;;5052354;28;20479;-45
2021/12/15 02:56:44;;;;;;;133.70;44.58;;;9.50;99.90;;;;;;5052224;28;20040;-45
2021/12/15 02:59:13;;;;;;;133.40;45.00;;;9.60;99.90;;;;;;5052575;28;20052;-45
2021/12/15 03:17:42;;;;;;;131.18;44.63;;;9.60;99.90;;;;;;5052111;28;20509;-45
2021/12/15 03:20:10;;;;;;;111.03;42.67;;;9.50;99.90;;;;;;5052259;28;20123;-45
2021/12/15 03:22:37;;;;;;;126.90;44.45;;;9.60;99.90;;;;;;5052298;28;20148;-45
2021/12/15 03:25:04;;;;;;;126.10;45.88;;;9.60;99.90;;;;;;5052797;28;20076;-47
2021/12/15 03:33:27;;;;;;;136.70;45.75;;;9.60;99.90;;;;;;5052637;28;20048;-46
2021/12/15 03:36:01;;;;;;;109.47;42.80;;;9.50;99.90;;;;;;5051824;28;20059;-45
2021/12/15 03:38:28;;;;;;;115.43;44.88;;;9.50;99.90;;;;;;5051929;28;20089;-45
2021/12/15 03:40:54;;;;;;;129.98;46.28;;;9.50;99.90;;;;;;5052024;28;20060;-45
2021/12/15 03:43:22;;;;;;;120.00;45.65;;;9.60;99.90;;;;;;5051042;28;20059;-45
2021/12/15 03:45:54;;;;;;;127.53;46.65;;;9.50;99.90;;;;;;5050768;28;20040;-45
2021/12/15 03:48:24;;;;;;;127.97;47.60;;;9.50;99.90;;;;;;5051758;28;20376;-45
2021/12/15 03:50:51;;;;;;;136.82;46.38;;;9.90;99.90;;;;;;5051876;28;20044;-45
2021/12/15 03:53:18;;;;;;;121.55;43.60;;;9.50;99.90;;;;;;5051835;28;20479;-46
2021/12/15 03:55:45;;;;;;;136.48;48.22;;;9.50;99.90;;;;;;5051455;28;20045;-45
2021/12/15 03:58:14;;;;;;;126.78;47.53;;;10.40;99.90;;;;;;5051817;28;20105;-46
2021/12/15 04:00:45;;;;;;;123.93;42.67;;;9.50;99.90;;;;;;5050223;28;20144;-45
2021/12/15 04:03:22;;;;;;;124.07;45.10;;;9.60;99.90;;;;;;5051496;28;20051;-45
2021/12/15 04:05:48;;;;;;;123.97;43.70;;;9.50;99.90;;;;;;5050870;28;20502;-46
2021/12/15 04:08:14;;;;;;;130.25;46.33;;;9.50;99.90;;;;;;5051220;28;20036;-46
2021/12/15 04:10:40;;;;;;;138.73;48.25;;;10.30;99.90;;;;;;5051127;28;20041;-46
2021/12/15 04:13:07;;;;;;;129.65;46.20;;;9.50;99.90;;;;;;5050677;28;20102;-45
2021/12/15 04:15:43;;;;;;;132.02;46.50;;;10.20;99.90;;;;;;5050903;28;20168;-45
2021/12/15 04:18:08;;;;;;;128.30;46.60;;;9.50;99.90;;;;;;5051139;28;20049;-46
2021/12/15 04:20:37;;;;;;;134.20;47.78;;;9.40;99.90;;;;;;5049271;28;20037;-45
2021/12/15 04:23:06;;;;;;;126.18;45.10;;;9.60;99.90;;;;;;5051210;28;20045;-46
2021/12/15 04:25:34;;;;;;;131.25;47.47;;;9.50;99.90;;;;;;5050827;28;20045;-45
2021/12/15 04:28:33;;;;;;;118.22;44.67;;;9.50;99.90;;;;;;5050687;28;20575;-45
2021/12/15 04:31:06;;;;;;;124.25;45.75;;;9.50;99.90;;;;;;5051023;28;20036;-46
2021/12/15 04:33:54;;;;;;;141.75;50.25;;;9.40;99.90;;;;;;5050382;28;20112;-46
2021/12/15 04:36:23;;;;;;;143.40;50.45;;;9.60;99.90;;;;;;5050229;28;20052;-45
2021/12/15 04:38:49;;;;;;;135.32;48.28;;;9.40;99.90;;;;;;5050327;28;20095;-45
2021/12/15 04:41:17;;;;;;;123.72;43.28;;;9.40;99.90;;;;;;5050512;28;20049;-45
2021/12/15 04:43:44;;;;;;;126.80;46.88;;;9.30;99.90;;;;;;5049972;28;20479;-45
2021/12/15 04:46:11;;;;;;;136.75;49.22;;;9.30;99.90;;;;;;5050309;28;20053;-45
2021/12/15 04:48:40;;;;;;;140.18;50.45;;;9.50;99.90;;;;;;5050225;28;20420;-45
2021/12/15 04:51:07;;;;;;;140.07;49.58;;;9.60;99.90;;;;;;5050584;28;20037;-45
2021/12/15 04:53:34;;;;;;;138.77;52.33;;;9.40;99.90;;;;;;5049877;28;20495;-46
2021/12/15 04:56:00;;;;;;;127.50;46.80;;;10.50;99.90;;;;;;5049907;28;20051;-46
2021/12/15 04:58:26;;;;;;;132.93;48.45;;;9.80;99.90;;;;;;5050237;28;20041;-45
2021/12/15 05:00:58;;;;;;;131.50;50.15;;;9.20;99.90;;;;;;5048734;28;20052;-45
2021/12/15 05:03:23;;;;;;;;;;;9.70;99.90;;;;;;5050790;28;20037;-45
2021/12/15 05:05:51;;;;;;;148.60;50.97;;;10.20;99.90;;;;;;5048867;28;20286;-45
2021/12/15 05:08:16;;;;;;;144.80;53.53;;;9.40;99.90;;;;;;5049958;28;20494;-45
2021/12/15 05:10:43;;;;;;;134.68;51.08;;;9.80;99.90;;;;;;5049914;28;20049;-45
2021/12/15 05:13:10;;;;;;;133.68;51.40;;;10.00;99.90;;;;;;5050650;28;20368;-46
2021/12/15 05:15:36;;;;;;;148.73;55.17;;;9.20;99.90;;;;;;5049604;28;20064;-45
2021/12/15 05:18:05;;;;;;;128.80;48.28;;;9.30;99.90;;;;;;5049960;28;20044;-45
2021/12/15 05:20:34;;;;;;;144.48;54.10;;;9.40;99.90;;;;;;5049685;28;20087;-45
2021/12/15 05:23:02;;;;;;;139.73;50.97;;;10.20;99.90;;;;;;5049667;28;20465;-45
2021/12/15 05:25:29;;;;;;;124.85;47.33;;;9.30;99.90;;;;;;5048470;28;20509;-45
2021/12/15 05:27:55;;;;;;;142.45;51.30;;;9.40;99.90;;;;;;5050238;28;20083;-46
2021/12/15 05:30:20;;;;;;;131.35;48.72;;;9.80;99.90;;;;;;5050259;28;20124;-45
2021/12/15 05:32:47;;;;;;;121.90;47.63;;;9.50;99.90;;;;;;5049524;28;20112;-46
2021/12/15 05:35:20;;;;;;;130.77;51.92;;;9.40;99.90;;;;;;5050069;28;20037;-45
2021/12/15 05:37:46;;;;;;;127.10;49.78;;;9.80;99.90;;;;;;5049994;28;20041;-45
2021/12/15 05:40:12;;;;;;;139.30;52.60;;;9.50;99.90;;;;;;5048948;28;20064;-46
2021/12/15 05:42:38;;;;;;;128.20;49.40;;;9.20;99.90;;;;;;5049752;28;20033;-46
2021/12/15 05:45:05;;;;;;;140.48;52.42;;;9.40;99.90;;;;;;5049573;28;20508;-45
2021/12/15 05:47:31;;;;;;;142.60;51.67;;;9.40;99.90;;;;;;5049871;28;20044;-46
2021/12/15 05:49:57;;;;;;;140.93;52.35;;;10.30;99.90;;;;;;5049924;28;20060;-46
2021/12/15 05:52:27;;;;;;;141.00;52.83;;;9.40;99.90;;;;;;5049740;28;20040;-46
2021/12/15 05:54:52;;;;;;;129.07;50.83;;;10.10;99.90;;;;;;5049811;28;20071;-45
2021/12/15 05:57:18;;;;;;;135.77;52.85;;;9.40;99.90;;;;;;5050095;28;20044;-46
2021/12/15 05:59:44;;;;;;;129.68;49.83;;;9.40;99.90;;;;;;5050031;28;20509;-45
2021/12/15 06:02:10;;;;;;;133.57;49.78;;;9.70;99.90;;;;;;5048795;28;20055;-45
2021/12/15 06:04:35;;;;;;;122.68;49.40;;;9.50;99.90;;;;;;5050332;28;20145;-46
2021/12/15 06:07:01;;;;;;;138.88;51.08;;;9.20;99.90;;;;;;5049402;28;20096;-45
2021/12/15 06:09:27;;;;;;;137.10;52.15;;;9.50;99.90;;;;;;5050973;28;20522;-45
2021/12/15 06:11:54;;;;;;;127.22;51.00;;;9.70;99.90;;;;;;5053431;28;20066;-45
2021/12/15 06:14:24;;;;;;;129.45;51.95;;;9.40;99.90;;;;;;5053616;28;20044;-46
2021/12/15 06:16:58;;;;;;;124.93;51.65;;;9.40;99.90;;;;;;5052273;28;20475;-45
2021/12/15 06:19:24;;;;;;;133.10;48.78;;;9.30;99.90;;;;;;5053152;28;20056;-46
2021/12/15 06:21:50;;;;;;;125.05;49.35;;;9.50;99.90;;;;;;5052561;28;20128;-46
2021/12/15 06:24:16;;;;;;;132.85;49.15;;;9.50;99.90;;;;;;5052959;28;20128;-45
2021/12/15 06:26:42;;;;;;;126.13;51.80;;;9.40;99.90;;;;;;5052915;28;20120;-47
2021/12/15 06:29:08;;;;;;;136.85;52.25;;;9.30;99.90;;;;;;5052662;28;20068;-45
2021/12/15 06:31:34;;;;;;;129.50;53.42;;;9.40;99.90;;;;;;5052807;28;20076;-45
2021/12/15 06:33:59;;;;;;;129.40;52.30;;;9.50;99.90;;;;;;5052863;28;20040;-46
2021/12/15 06:36:27;;;;;;;109.53;48.10;;;9.40;99.90;;;;;;5051536;28;20100;-45
2021/12/15 06:38:54;;;;;;;135.82;52.90;;;9.40;99.90;;;;;;5052711;28;20128;-45
2021/12/15 06:41:21;;;;;;;108.82;45.05;;;9.40;99.90;;;;;;5052882;28;20060;-45
2021/12/15 06:43:51;;;;;;;116.95;49.95;;;9.40;99.90;;;;;;5052699;28;20462;-45
2021/12/15 06:57:35;;;;;;;116.97;45.33;;;9.90;99.90;;;;;;5052092;28;20127;-45
2021/12/15 07:00:06;;;;;;;127.65;53.28;;;9.20;99.90;;;;;;5051451;28;20072;-46
2021/12/15 07:02:32;;;;;;;122.82;51.85;;;9.40;99.90;;;;;;5053044;28;20099;-45
2021/12/15 07:04:58;;;;;;;116.28;50.58;;;9.60;99.90;;;;;;5052570;28;20045;-45
2021/12/15 07:07:23;;;;;;;113.07;44.85;;;9.40;99.90;;;;;;5052253;28;20118;-46
2021/12/15 07:09:49;;;;;;;124.97;51.88;;;9.90;99.90;;;;;;5052271;28;20090;-46
2021/12/15 07:12:15;;;;;;;119.47;49.88;;;9.30;99.90;;;;;;5052348;28;20068;-45
2021/12/15 07:14:41;;;;;;;114.57;48.42;;;10.00;99.90;;;;;;5052328;28;20045;-45
2021/12/15 07:17:14;;;;;;;128.73;54.65;;;9.40;99.90;;;;;;5052143;28;20103;-45
2021/12/15 07:25:07;;;;;;;126.07;53.45;;;9.40;99.90;;;;;;5051578;28;20392;-45
2021/12/15 07:27:33;;;;;;;126.55;51.30;;;9.40;99.90;;;;;;5052016;28;20048;-45
2021/12/15 07:30:00;;;;;;;111.20;51.20;;;9.40;99.90;;;;;;5051491;28;20041;-46
2021/12/15 07:32:25;;;;;;;125.72;51.25;;;9.70;99.90;;;;;;5051567;28;20041;-45
2021/12/15 07:34:51;;;;;;;105.93;45.67;;;9.70;99.90;;;;;;5051608;28;20045;-46
2021/12/15 07:37:17;;;;;;;116.55;50.63;;;9.40;99.90;;;;;;5051598;28;20175;-45
2021/12/15 07:39:54;;;;;;;110.97;48.20;;;9.40;99.90;;;;;;5049939;28;20696;-46
2021/12/15 07:42:29;;;;;;;115.47;48.88;;;9.40;99.90;;;;;;5050993;28;20065;-45
2021/12/15 07:44:54;;;;;;;114.82;49.42;;;9.20;99.90;;;;;;5050709;28;20041;-46
2021/12/15 07:47:20;;;;;;;108.55;47.35;;;9.30;99.90;;;;;;5051135;28;20044;-45
2021/12/15 07:49:46;;;;;;;117.82;49.53;;;9.80;99.90;;;;;;5050887;28;20043;-46
2021/12/15 07:52:11;;;;;;;102.70;46.90;;;9.50;99.90;;;;;;5051115;28;20043;-47
2021/12/15 07:54:37;;;;;;;121.65;50.42;;;9.30;99.90;;;;;;5051185;28;20128;-45
2021/12/15 07:57:11;;;;;;;98.65;43.42;;;10.00;99.90;;;;;;5051175;28;20142;-45
2021/12/15 07:59:38;;;;;;;103.15;45.67;;;9.50;99.90;;;;;;5051601;28;20048;-46
2021/12/15 08:02:04;;;;;;;100.68;45.65;;;10.10;99.90;;;;;;5050755;28;20076;-45
2021/12/15 08:04:30;;;;;;;95.68;44.72;;;9.40;99.90;;;;;;5051396;28;20049;-46
2021/12/15 08:06:55;;;;;;;92.90;40.35;;;9.80;99.90;;;;;;5050679;28;20037;-45
2021/12/15 08:09:22;;;;;;;90.25;39.97;;;9.30;99.90;;;;;;5050652;28;20076;-44
2021/12/15 08:11:49;;;;;;;96.32;44.60;;;9.30;99.90;;;;;;5048640;28;20059;-45
2021/12/15 08:14:15;;;;;;;82.43;39.40;;;9.50;99.90;;;;;;5050806;28;20076;-45
2021/12/15 08:16:41;;;;;;;91.93;41.42;;;9.40;99.90;;;;;;5050927;28;20041;-45
2021/12/15 08:19:08;;;;;;;82.43;39.45;;;9.40;99.90;;;;;;5050077;28;20033;-45
2021/12/15 08:21:35;;;;;;;92.97;42.08;;;10.30;99.90;;;;;;5050433;28;20041;-45
2021/12/15 08:24:01;;;;;;;88.72;41.47;;;9.50;99.90;;;;;;5050102;28;20045;-46
2021/12/15 08:26:27;;;;;;;88.13;42.05;;;9.50;99.90;;;;;;5050498;28;20060;-46
2021/12/15 08:28:54;;;;;;;79.97;40.35;;;9.50;99.90;;;;;;5050319;28;20395;-45
2021/12/15 08:31:20;;;;;;;82.68;39.63;;;9.50;99.90;;;;;;5049604;28;20045;-45
2021/12/15 08:33:46;;;;;;;87.05;40.25;;;9.50;99.90;;;;;;5050080;28;20077;-45
2021/12/15 08:36:14;;;;;;;85.63;38.72;;;9.50;99.90;;;;;;5049885;28;20045;-45
2021/12/15 08:38:42;;;;;;;86.75;41.03;;;9.50;99.90;;;;;;5049967;28;20047;-45
2021/12/15 08:41:12;;;;;;;93.20;42.67;;;10.40;99.90;;;;;;5049558;28;20115;-46
2021/12/15 08:43:38;;;;;;;84.20;39.35;;;9.50;99.90;;;;;;5049920;28;20423;-45
2021/12/15 08:46:10;;;;;;;78.95;38.05;;;9.70;99.90;;;;;;5049830;28;20045;-45
2021/12/15 08:48:37;;;;;;;;;;;9.60;99.90;;;;;;5050892;28;20045;-44
2021/12/15 08:51:05;;;;;;;76.20;38.35;;;9.70;99.90;;;;;;5050174;28;20279;-45
2021/12/15 08:53:31;;;;;;;77.50;36.88;;;9.60;99.90;;;;;;5050177;28;20045;-45
2021/12/15 08:55:57;;;;;;;75.90;36.92;;;9.60;99.90;;;;;;5050028;28;20099;-45
2021/12/15 08:58:24;;;;;;;73.80;37.28;;;9.70;99.90;;;;;;5050090;28;20040;-45
2021/12/15 09:00:54;;;;;;;80.18;36.95;;;9.70;99.90;;;;;;5050177;28;20037;-46
2021/12/15 09:03:20;;;;;;;81.05;37.97;;;9.70;99.90;;;;;;5049911;28;20076;-45
2021/12/15 09:05:49;;;;;;;79.78;37.70;;;9.70;99.90;;;;;;5049762;28;20478;-46
2021/12/15 09:08:15;;;;;;;74.35;37.50;;;9.60;99.90;;;;;;5049544;28;20565;-45
2021/12/15 09:10:44;;;;;;;81.13;38.63;;;9.70;99.90;;;;;;5049726;28;20041;-45
2021/12/15 09:13:09;;;;;;;77.47;37.25;;;9.70;99.90;;;;;;5049432;28;20041;-44
2021/12/15 09:15:36;;;;;;;84.82;38.90;;;9.90;99.90;;;;;;5050096;28;20047;-45
2021/12/15 09:18:03;;;;;;;76.95;36.28;;;9.90;99.90;;;;;;5049612;28;20037;-45
2021/12/15 09:20:31;;;;;;;70.25;34.13;;;9.80;99.90;;;;;;5049484;28;20044;-46
2021/12/15 09:22:58;;;;;;;71.28;35.80;;;9.80;99.90;;;;;;5050011;28;20110;-45
2021/12/15 09:25:25;;;;;;;66.65;34.85;;;9.80;99.90;;;;;;5049580;28;20045;-45
2021/12/15 09:27:50;;;;;;;69.05;36.70;;;9.70;99.90;;;;;;5050297;28;20078;-45
2021/12/15 09:30:20;;;;;;;75.25;37.05;;;9.70;99.90;;;;;;5049975;28;20072;-46
2021/12/15 09:32:47;;;;;;;67.25;35.70;;;9.90;99.90;;;;;;5049170;28;20041;-46
2021/12/15 09:35:15;;;;;;;78.65;35.92;;;10.20;99.90;;;;;;5049588;28;20045;-45
2021/12/15 09:37:41;;;;;;;63.83;35.13;;;9.80;99.90;;;;;;5049573;28;20124;-45
2021/12/15 09:40:09;;;;;;;69.78;36.67;;;9.70;99.90;;;;;;5049143;28;20139;-45
2021/12/15 09:42:38;;;;;;;77.80;37.67;;;9.90;99.90;;;;;;5049618;28;20063;-44
2021/12/15 09:45:25;;;;;;;69.18;35.45;;;9.90;99.90;;;;;;5052359;28;20045;-46
2021/12/15 10:04:22;;;;;;;62.53;31.80;;;9.90;99.90;;;;;;5053207;28;20078;-45
2021/12/15 10:17:51;;;;;;;46.20;27.60;;;10.00;99.90;;;;;;5052323;28;20103;-45
2021/12/15 10:20:23;;;;;;;52.08;28.45;;;10.00;99.90;;;;;;5051673;28;20037;-44
2021/12/15 10:22:55;;;;;;;48.92;28.38;;;10.00;99.90;;;;;;5050135;28;20044;-44
2021/12/15 10:25:24;;;;;;;;;;;10.10;99.90;;;;;;5052767;28;20451;-49
2021/12/15 10:28:22;;;;;;;55.25;28.50;;;10.00;99.90;;;;;;5051217;28;20335;-45
2021/12/15 10:30:55;;;;;;;54.53;31.52;;;10.10;99.90;;;;;;5051091;28;20044;-46
2021/12/15 10:33:23;;;;;;;51.63;28.65;;;10.10;99.90;;;;;;5052524;28;20131;-45
2021/12/15 10:35:53;;;;;;;55.25;29.75;;;10.10;99.90;;;;;;5052729;28;20098;-45
2021/12/15 10:38:24;;;;;;;51.35;28.55;;;10.10;99.90;;;;;;5052055;28;20518;-45
2021/12/15 10:40:51;;;;;;;56.25;27.75;;;10.20;99.90;;;;;;5052257;28;20068;-46
2021/12/15 10:43:18;;;;;;;50.03;26.52;;;10.10;99.90;;;;;;5052005;28;20056;-46
2021/12/15 10:45:49;;;;;;;44.92;26.38;;;10.10;99.90;;;;;;5051992;28;20037;-47
2021/12/15 10:48:24;;;;;;;51.35;29.23;;;10.20;99.90;;;;;;5052089;28;20048;-48
2021/12/15 10:50:52;;;;;;;46.05;25.40;;;10.30;99.90;;;;;;5052147;28;20036;-45
2021/12/15 10:53:38;;;;;;;49.03;26.83;;;10.20;99.90;;;;;;5051626;28;20055;-48
2021/12/15 10:56:16;;;;;;;47.83;26.77;;;10.30;99.90;;;;;;5049139;28;20052;-45
2021/12/15 10:58:46;;;;;;;45.85;25.10;;;10.20;99.90;;;;;;5049375;28;20398;-49
2021/12/15 11:01:36;;;;;;;46.65;25.33;;;10.30;99.90;;;;;;5050318;28;20047;-45
2021/12/15 11:04:18;;;;;;;42.95;26.58;;;10.40;99.90;;;;;;5049275;28;20048;-44
2021/12/15 11:06:44;;;;;;;40.08;24.27;;;10.40;99.90;;;;;;5049624;28;20386;-45
2021/12/15 11:09:20;;;;;;;48.70;24.40;;;10.40;99.90;;;;;;5051461;28;20305;-45
2021/12/15 11:12:08;;;;;;;43.13;24.58;;;10.40;99.90;;;;;;5050044;28;20076;-45
2021/12/15 11:14:40;;;;;;;42.80;23.23;;;10.50;99.90;;;;;;5050190;28;20048;-45
2021/12/15 11:17:10;;;;;;;42.20;24.17;;;10.50;99.90;;;;;;5047884;28;20087;-45
2021/12/15 11:19:44;;;;;;;45.55;23.63;;;10.50;99.90;;;;;;5051435;28;20060;-45
2021/12/15 11:23:07;;;;;;;39.15;22.15;;;10.50;99.90;;;;;;5051813;28;20045;-45
2021/12/15 11:25:36;;;;;;;43.65;22.40;;;10.50;99.90;;;;;;4970908;28;20054;-45
2021/12/15 11:28:24;;;;;;;44.65;22.50;;;10.40;99.90;;;;;;4970577;28;20054;-46
2021/12/15 11:31:06;;;;;;;41.50;23.10;;;10.50;99.90;;;;;;4940792;28;20057;-59
2021/12/15 11:33:37;;;;;;;33.03;20.63;;;10.30;99.90;;;;;;5036692;28;20035;-47
2021/12/15 11:36:06;;;;;;;35.70;21.83;;;10.00;99.90;;;;;;5037094;28;20044;-47
2021/12/15 11:38:36;;;;;;;43.40;20.95;;;10.30;99.90;;;;;;5036106;28;20526;-44
2021/12/15 11:41:15;;;;;;;36.15;21.85;;;10.30;99.90;;;;;;5020936;28;20063;-47
2021/12/15 11:43:40;;;;;;;33.17;21.25;;;10.40;99.90;;;;;;5041385;28;21296;-49
2021/12/15 11:46:20;;;;;;;37.45;21.95;;;10.40;99.90;;;;;;5039900;28;20502;-54
2021/12/15 11:49:13;;;;;;;38.10;22.48;;;10.40;99.90;;;;;;5037942;28;20502;-57
2021/12/15 11:51:47;;;;;;;;;;;10.50;99.90;;;;;;5040295;28;20132;-51
2021/12/15 11:54:19;;;;;;;31.48;16.58;;;10.50;99.90;;;;;;5041731;28;19919;-48
2021/12/15 11:56:54;;;;;;;34.47;19.35;;;10.50;99.90;;;;;;5039093;28;20548;-48
2021/12/15 11:59:29;;;;;;;34.83;20.38;;;10.50;99.90;;;;;;5040555;28;20033;-52
2021/12/15 12:01:59;;;;;;;31.35;19.33;;;10.50;99.90;;;;;;5036812;28;20033;-41
2021/12/15 12:04:29;;;;;;;38.08;19.95;;;10.50;99.90;;;;;;5032932;28;20121;-40
2021/12/15 12:07:29;;;;;;;36.10;20.23;;;10.80;99.90;;;;;;5023349;28;20051;-51
2021/12/15 12:09:58;;;;;;;39.65;20.40;;;10.50;99.90;;;;;;5028930;28;20044;-39
2021/12/15 12:12:29;;;;;;;29.40;18.40;;;11.40;99.90;;;;;;5037498;28;20120;-39
2021/12/15 12:14:55;;;;;;;28.08;17.98;;;11.30;99.90;;;;;;5038767;28;20029;-40
2021/12/15 12:17:27;;;;;;;27.88;15.10;;;10.60;99.90;;;;;;5037223;28;20040;-39
2021/12/15 12:19:58;;;;;;;27.42;14.88;;;11.00;99.90;;;;;;5036461;28;20407;-42
2021/12/15 12:22:29;;;;;;;23.25;13.48;;;10.50;99.90;;;;;;5040746;28;20033;-47
2021/12/15 12:24:58;;;;;;;31.33;14.05;;;10.60;99.90;;;;;;5039200;28;20041;-45
2021/12/15 12:27:26;;;;;;;23.55;14.57;;;10.20;99.90;;;;;;5035554;28;20119;-45
2021/12/15 12:29:54;;;;;;;28.52;15.27;;;10.60;99.90;;;;;;5009762;28;20045;-42
2021/12/15 12:32:20;;;;;;;27.58;15.20;;;10.70;99.90;;;;;;5033074;28;20383;-45
2021/12/15 12:34:46;;;;;;;26.17;14.30;;;10.50;99.90;;;;;;5037208;28;20040;-47
2021/12/15 12:37:14;;;;;;;25.50;14.70;;;10.40;99.90;;;;;;5037262;28;20124;-44
2021/12/15 12:39:44;;;;;;;29.92;16.05;;;10.40;99.90;;;;;;5033494;28;20064;-49
2021/12/15 12:42:32;;;;;;;24.73;15.82;;;10.40;99.90;;;;;;5039415;28;20128;-62
2021/12/15 12:45:22;;;;;;;34.53;16.92;;;10.70;99.90;;;;;;5037154;28;20080;-54
2021/12/15 12:48:24;;;;;;;25.20;13.95;;;10.50;99.90;;;;;;5037163;28;20036;-47
2021/12/15 12:59:26;;;;;;;25.73;13.13;;;10.50;99.90;;;;;;5037746;28;20048;-44
2021/12/15 13:01:53;;;;;;;23.08;13.75;;;10.50;99.90;;;;;;5034631;28;20049;-43
2021/12/15 13:04:19;;;;;;;24.48;13.32;;;10.50;99.90;;;;;;5032726;28;20037;-43
2021/12/15 13:06:45;;;;;;;26.60;13.32;;;10.40;99.90;;;;;;5033214;28;20565;-43
2021/12/15 13:09:17;;;;;;;22.67;13.43;;;10.30;99.90;;;;;;5033859;28;20044;-43
2021/12/15 13:11:49;;;;;;;26.00;12.33;;;10.70;99.90;;;;;;5031640;28;20551;-42
2021/12/15 13:14:33;;;;;;;22.30;11.63;;;10.30;99.90;;;;;;5039263;28;20083;-44
2021/12/15 13:17:06;;;;;;;27.15;11.90;;;10.30;99.90;;;;;;5035330;28;20146;-47
2021/12/15 13:19:34;;;;;;;13.02;6.05;;;10.20;99.90;;;;;;5033665;28;20463;-49
2021/12/15 13:30:47;;;;;;;15.35;7.05;;;10.10;99.90;;;;;;5029752;28;20052;-46
2021/12/15 13:33:40;;;;;;;13.40;4.43;;;10.10;99.90;;;;;;5037342;28;20167;-43
2021/12/15 13:36:22;;;;;;;9.82;3.80;;;10.30;99.90;;;;;;5037129;28;20049;-45
2021/12/15 13:39:03;;;;;;;12.75;4.57;;;10.00;99.90;;;;;;5042604;28;20045;-48
2021/12/15 13:41:39;;;;;;;19.70;6.43;;;9.90;99.90;;;;;;5041752;28;20056;-46
2021/12/15 13:44:35;;;;;;;8.30;3.90;;;10.10;99.90;;;;;;5037399;28;20041;-56
2021/12/15 13:47:09;;;;;;;10.95;4.47;;;9.70;99.90;;;;;;5042422;28;20494;-53
2021/12/15 13:49:54;;;;;;;12.68;5.05;;;9.40;99.90;;;;;;5041992;28;20052;-52
2021/12/15 13:52:26;;;;;;;17.38;6.07;;;9.40;99.90;;;;;;5038085;28;20037;-45
2021/12/15 13:54:56;;;;;;;10.13;4.65;;;9.30;99.90;;;;;;5032058;28;20053;-54
2021/12/15 13:57:29;;;;;;;15.30;4.60;;;9.50;99.90;;;;;;5019415;28;20659;-46
2021/12/15 14:00:01;;;;;;;13.73;3.92;;;9.30;99.90;;;;;;5031989;28;20117;-47
2021/12/15 14:02:31;;;;;;;15.32;5.50;;;9.30;99.90;;;;;;5052022;28;20037;-46
2021/12/15 14:05:24;;;;;;;13.23;4.82;;;9.20;99.90;;;;;;5051036;28;20055;-46
2021/12/15 14:08:00;;;;;;;11.80;4.63;;;9.10;99.90;;;;;;5048148;28;20049;-48
2021/12/15 14:10:29;;;;;;;15.57;5.30;;;9.00;99.90;;;;;;5051346;28;20044;-46
2021/12/15 14:12:59;;;;;;;10.98;4.47;;;8.80;99.90;;;;;;5051004;28;20041;-45
2021/12/15 14:15:25;;;;;;;16.00;5.40;;;8.80;99.90;;;;;;5051105;28;20049;-46
2021/12/15 14:18:00;;;;;;;15.00;4.68;;;9.00;99.90;;;;;;5050832;28;20102;-46
2021/12/15 14:20:27;;;;;;;12.85;5.68;;;8.50;99.90;;;;;;5051400;28;20049;-50
2021/12/15 14:23:03;;;;;;;17.58;5.40;;;8.60;99.90;;;;;;5051233;28;20430;-47